sensor_id;sensor_type;location;lat;lon;timestamp;temperature;humidity
24011;DHT22;12217;50.792;4.372;2024-02-21T00:01:40;9.80;99.90
24011;DHT22;12217;50.792;4.372;2024-02-21T00:04:05;9.80;99.90
24011;DHT22;12217;50.792;4.372;2024-02-21T00:06:31;9.70;99.90
24011;DHT22;12217;50.792;4.372;2024-02-21T00:08:57;9.90;99.90
24011;DHT22;12217;50.792;4.372;2024-02-21T00:11:23;9.80;99.90
24011;DHT22;12217;50.792;4.372;2024-02-21T00:13:49;9.90;99.90
24011;DHT22;12217;50.792;4.372;2024-02-21T00:16:16;10.00;99.90
24011;DHT22;12217;50.792;4.372;2024-02-21T00:18:41;9.90;99.90
24011;DHT22;12217;50.792;4.372;2024-02-21T00:21:07;9.70;99.90
24011;DHT22;12217;50.792;4.372;2024-02-21T00:23:33;9.80;99.90
24011;DHT22;12217;50.792;4.372;2024-02-21T00:25:58;9.70;99.90
24011;DHT22;12217;50.792;4.372;2024-02-21T00:28:24;9.70;99.90
24011;DHT22;12217;50.792;4.372;2024-02-21T00:30:49;9.60;99.90
24011;DHT22;12217;50.792;4.372;2024-02-21T00:33:17;9.50;99.90
24011;DHT22;12217;50.792;4.372;2024-02-21T00:35:42;9.50;99.90
24011;DHT22;12217;50.792;4.372;2024-02-21T00:38:08;9.60;99.90
24011;DHT22;12217;50.792;4.372;2024-02-21T00:40:34;9.60;99.90
24011;DHT22;12217;50.792;4.372;2024-02-21T00:43:00;9.70;99.90
24011;DHT22;12217;50.792;4.372;2024-02-21T00:45:26;9.80;99.90
24011;DHT22;12217;50.792;4.372;2024-02-21T00:47:51;9.60;99.90
24011;DHT22;12217;50.792;4.372;2024-02-21T00:50:17;9.50;99.90
24011;DHT22;12217;50.792;4.372;2024-02-21T00:52:43;9.40;99.90
24011;DHT22;12217;50.792;4.372;2024-02-21T00:55:09;9.40;99.90
24011;DHT22;12217;50.792;4.372;2024-02-21T00:57:35;9.40;99.90
24011;DHT22;12217;50.792;4.372;2024-02-21T01:00:03;9.50;99.90
24011;DHT22;12217;50.792;4.372;2024-02-21T01:02:28;9.50;99.90
24011;DHT22;12217;50.792;4.372;2024-02-21T01:04:57;9.50;99.90
24011;DHT22;12217;50.792;4.372;2024-02-21T01:07:22;9.60;99.90
24011;DHT22;12217;50.792;4.372;2024-02-21T01:09:48;9.60;99.90
24011;DHT22;12217;50.792;4.372;2024-02-21T01:12:14;9.70;99.90
24011;DHT22;12217;50.792;4.372;2024-02-21T01:14:39;9.70;99.90
24011;DHT22;12217;50.792;4.372;2024-02-21T01:17:05;9.60;99.90
24011;DHT22;12217;50.792;4.372;2024-02-21T01:19:31;9.70;99.90
24011;DHT22;12217;50.792;4.372;2024-02-21T01:21:57;9.60;99.90
24011;DHT22;12217;50.792;4.372;2024-02-21T01:24:22;9.80;99.90
24011;DHT22;12217;50.792;4.372;2024-02-21T01:26:49;9.70;99.90
24011;DHT22;12217;50.792;4.372;2024-02-21T01:29:15;9.60;99.90
24011;DHT22;12217;50.792;4.372;2024-02-21T01:31:40;9.50;99.90
24011;DHT22;12217;50.792;4.372;2024-02-21T01:34:06;9.50;99.90
24011;DHT22;12217;50.792;4.372;2024-02-21T01:36:31;9.70;99.90
24011;DHT22;12217;50.792;4.372;2024-02-21T01:38:57;9.60;99.90
24011;DHT22;12217;50.792;4.372;2024-02-21T01:41:23;9.60;99.90
24011;DHT22;12217;50.792;4.372;2024-02-21T01:43:48;9.60;99.90
24011;DHT22;12217;50.792;4.372;2024-02-21T01:46:14;9.60;99.90
24011;DHT22;12217;50.792;4.372;2024-02-21T01:48:39;9.70;99.90
24011;DHT22;12217;50.792;4.372;2024-02-21T01:51:05;9.70;99.90
24011;DHT22;12217;50.792;4.372;2024-02-21T01:53:35;9.70;99.90
24011;DHT22;12217;50.792;4.372;2024-02-21T01:56:02;9.50;99.90
24011;DHT22;12217;50.792;4.372;2024-02-21T01:58:30;9.60;99.90
24011;DHT22;12217;50.792;4.372;2024-02-21T02:00:57;9.60;99.90
24011;DHT22;12217;50.792;4.372;2024-02-21T02:03:23;9.50;99.90
24011;DHT22;12217;50.792;4.372;2024-02-21T02:05:50;9.30;99.90
24011;DHT22;12217;50.792;4.372;2024-02-21T02:08:20;9.30;99.90
24011;DHT22;12217;50.792;4.372;2024-02-21T02:10:48;9.30;99.90
24011;DHT22;12217;50.792;4.372;2024-02-21T02:13:13;9.30;99.90
24011;DHT22;12217;50.792;4.372;2024-02-21T02:15:43;9.30;99.90
24011;DHT22;12217;50.792;4.372;2024-02-21T02:18:10;9.40;99.90
24011;DHT22;12217;50.792;4.372;2024-02-21T02:20:36;9.30;99.90
24011;DHT22;12217;50.792;4.372;2024-02-21T02:25:34;9.30;99.90
24011;DHT22;12217;50.792;4.372;2024-02-21T02:28:00;9.40;99.90
24011;DHT22;12217;50.792;4.372;2024-02-21T02:30:25;9.30;99.90
24011;DHT22;12217;50.792;4.372;2024-02-21T02:32:51;9.40;99.90
24011;DHT22;12217;50.792;4.372;2024-02-21T02:35:16;9.40;99.90
24011;DHT22;12217;50.792;4.372;2024-02-21T02:37:48;9.30;99.90
24011;DHT22;12217;50.792;4.372;2024-02-21T02:40:14;9.10;99.90
24011;DHT22;12217;50.792;4.372;2024-02-21T02:42:40;9.20;99.90
24011;DHT22;12217;50.792;4.372;2024-02-21T02:45:06;9.30;99.90
24011;DHT22;12217;50.792;4.372;2024-02-21T02:47:32;9.30;99.90
24011;DHT22;12217;50.792;4.372;2024-02-21T02:50:00;9.30;99.90
24011;DHT22;12217;50.792;4.372;2024-02-21T02:52:25;9.30;99.90
24011;DHT22;12217;50.792;4.372;2024-02-21T02:54:51;9.20;99.90
24011;DHT22;12217;50.792;4.372;2024-02-21T02:57:18;9.30;99.90
24011;DHT22;12217;50.792;4.372;2024-02-21T02:59:50;9.30;99.90
24011;DHT22;12217;50.792;4.372;2024-02-21T03:02:16;9.30;99.90
24011;DHT22;12217;50.792;4.372;2024-02-21T03:04:43;9.30;99.90
24011;DHT22;12217;50.792;4.372;2024-02-21T03:07:08;9.30;99.90
24011;DHT22;12217;50.792;4.372;2024-02-21T03:09:34;9.30;99.90
24011;DHT22;12217;50.792;4.372;2024-02-21T03:12:00;9.40;99.90
24011;DHT22;12217;50.792;4.372;2024-02-21T03:14:31;9.30;99.90
24011;DHT22;12217;50.792;4.372;2024-02-21T03:16:58;9.40;99.90
24011;DHT22;12217;50.792;4.372;2024-02-21T03:19:24;9.50;99.90
24011;DHT22;12217;50.792;4.372;2024-02-21T03:21:50;9.60;99.90
24011;DHT22;12217;50.792;4.372;2024-02-21T03:24:16;9.60;99.90
24011;DHT22;12217;50.792;4.372;2024-02-21T03:26:42;9.70;99.90
24011;DHT22;12217;50.792;4.372;2024-02-21T03:29:09;9.70;99.90
24011;DHT22;12217;50.792;4.372;2024-02-21T03:31:35;9.80;99.90
24011;DHT22;12217;50.792;4.372;2024-02-21T03:34:00;9.90;99.90
24011;DHT22;12217;50.792;4.372;2024-02-21T03:36:26;10.00;99.90
24011;DHT22;12217;50.792;4.372;2024-02-21T03:38:52;10.10;99.90
24011;DHT22;12217;50.792;4.372;2024-02-21T03:41:17;10.20;99.90
24011;DHT22;12217;50.792;4.372;2024-02-21T03:43:43;10.10;99.90
24011;DHT22;12217;50.792;4.372;2024-02-21T03:46:09;9.90;99.90
24011;DHT22;12217;50.792;4.372;2024-02-21T03:48:35;9.70;99.90
24011;DHT22;12217;50.792;4.372;2024-02-21T03:51:01;9.70;99.90
24011;DHT22;12217;50.792;4.372;2024-02-21T03:53:26;9.70;99.90
24011;DHT22;12217;50.792;4.372;2024-02-21T03:55:52;9.80;99.90
24011;DHT22;12217;50.792;4.372;2024-02-21T03:58:17;9.80;99.90
24011;DHT22;12217;50.792;4.372;2024-02-21T04:00:43;9.80;99.90
24011;DHT22;12217;50.792;4.372;2024-02-21T04:03:08;9.60;99.90
24011;DHT22;12217;50.792;4.372;2024-02-21T04:05:34;9.60;99.90
24011;DHT22;12217;50.792;4.372;2024-02-21T04:07:59;9.60;99.90
24011;DHT22;12217;50.792;4.372;2024-02-21T04:10:25;9.50;99.90
24011;DHT22;12217;50.792;4.372;2024-02-21T04:12:50;9.40;99.90
24011;DHT22;12217;50.792;4.372;2024-02-21T04:15:16;9.40;99.90
24011;DHT22;12217;50.792;4.372;2024-02-21T04:17:42;9.40;99.90
24011;DHT22;12217;50.792;4.372;2024-02-21T04:20:14;9.50;99.90
24011;DHT22;12217;50.792;4.372;2024-02-21T04:22:40;9.50;99.90
24011;DHT22;12217;50.792;4.372;2024-02-21T04:25:06;9.50;99.90
24011;DHT22;12217;50.792;4.372;2024-02-21T04:27:32;9.40;99.90
24011;DHT22;12217;50.792;4.372;2024-02-21T04:29:57;9.30;99.90
24011;DHT22;12217;50.792;4.372;2024-02-21T04:32:23;9.30;99.90
24011;DHT22;12217;50.792;4.372;2024-02-21T04:34:49;9.20;99.90
24011;DHT22;12217;50.792;4.372;2024-02-21T04:37:14;9.20;99.90
24011;DHT22;12217;50.792;4.372;2024-02-21T04:39:40;9.20;99.90
24011;DHT22;12217;50.792;4.372;2024-02-21T04:42:06;9.30;99.90
24011;DHT22;12217;50.792;4.372;2024-02-21T04:44:31;9.30;99.90
24011;DHT22;12217;50.792;4.372;2024-02-21T04:46:57;9.40;99.90
24011;DHT22;12217;50.792;4.372;2024-02-21T04:49:23;9.40;99.90
24011;DHT22;12217;50.792;4.372;2024-02-21T04:51:48;9.50;99.90
24011;DHT22;12217;50.792;4.372;2024-02-21T04:54:14;9.40;99.90
24011;DHT22;12217;50.792;4.372;2024-02-21T04:56:40;9.50;99.90
24011;DHT22;12217;50.792;4.372;2024-02-21T04:59:05;9.60;99.90
24011;DHT22;12217;50.792;4.372;2024-02-21T05:01:31;9.60;99.90
24011;DHT22;12217;50.792;4.372;2024-02-21T05:03:57;9.60;99.90
24011;DHT22;12217;50.792;4.372;2024-02-21T05:06:22;9.60;99.90
24011;DHT22;12217;50.792;4.372;2024-02-21T05:08:48;9.50;99.90
24011;DHT22;12217;50.792;4.372;2024-02-21T05:11:13;9.50;99.90
24011;DHT22;12217;50.792;4.372;2024-02-21T05:13:39;9.50;99.90
24011;DHT22;12217;50.792;4.372;2024-02-21T05:16:05;9.60;99.90
24011;DHT22;12217;50.792;4.372;2024-02-21T05:18:33;9.50;99.90
24011;DHT22;12217;50.792;4.372;2024-02-21T05:20:59;9.60;99.90
24011;DHT22;12217;50.792;4.372;2024-02-21T05:23:25;9.40;99.90
24011;DHT22;12217;50.792;4.372;2024-02-21T05:25:50;9.40;99.90
24011;DHT22;12217;50.792;4.372;2024-02-21T05:28:16;9.50;99.90
24011;DHT22;12217;50.792;4.372;2024-02-21T05:30:42;9.50;99.90
24011;DHT22;12217;50.792;4.372;2024-02-21T05:33:08;9.40;99.90
24011;DHT22;12217;50.792;4.372;2024-02-21T05:35:34;9.50;99.90
24011;DHT22;12217;50.792;4.372;2024-02-21T05:38:00;9.40;99.90
24011;DHT22;12217;50.792;4.372;2024-02-21T05:40:26;9.50;99.90
24011;DHT22;12217;50.792;4.372;2024-02-21T05:42:51;9.40;99.90
24011;DHT22;12217;50.792;4.372;2024-02-21T05:45:18;9.40;99.90
24011;DHT22;12217;50.792;4.372;2024-02-21T05:47:44;9.40;99.90
24011;DHT22;12217;50.792;4.372;2024-02-21T05:50:10;9.50;99.90
24011;DHT22;12217;50.792;4.372;2024-02-21T05:52:35;9.60;99.90
24011;DHT22;12217;50.792;4.372;2024-02-21T05:55:01;9.70;99.90
24011;DHT22;12217;50.792;4.372;2024-02-21T05:57:27;9.70;99.90
24011;DHT22;12217;50.792;4.372;2024-02-21T05:59:52;9.70;99.90
24011;DHT22;12217;50.792;4.372;2024-02-21T06:02:18;9.60;99.90
24011;DHT22;12217;50.792;4.372;2024-02-21T06:04:43;9.60;99.90
24011;DHT22;12217;50.792;4.372;2024-02-21T06:07:09;9.50;99.90
24011;DHT22;12217;50.792;4.372;2024-02-21T06:09:35;9.50;99.90
24011;DHT22;12217;50.792;4.372;2024-02-21T06:12:01;9.60;99.90
24011;DHT22;12217;50.792;4.372;2024-02-21T06:14:26;9.60;99.90
24011;DHT22;12217;50.792;4.372;2024-02-21T06:16:52;9.60;99.90
24011;DHT22;12217;50.792;4.372;2024-02-21T06:19:17;9.50;99.90
24011;DHT22;12217;50.792;4.372;2024-02-21T06:21:43;9.60;99.90
24011;DHT22;12217;50.792;4.372;2024-02-21T06:24:09;9.60;99.90
24011;DHT22;12217;50.792;4.372;2024-02-21T06:26:34;9.60;99.90
24011;DHT22;12217;50.792;4.372;2024-02-21T06:29:00;9.60;99.90
24011;DHT22;12217;50.792;4.372;2024-02-21T06:31:27;9.70;99.90
24011;DHT22;12217;50.792;4.372;2024-02-21T06:33:53;9.70;99.90
24011;DHT22;12217;50.792;4.372;2024-02-21T06:36:18;9.30;99.90
24011;DHT22;12217;50.792;4.372;2024-02-21T06:38:44;9.30;99.90
24011;DHT22;12217;50.792;4.372;2024-02-21T06:41:17;9.30;99.90
24011;DHT22;12217;50.792;4.372;2024-02-21T06:43:47;9.10;99.90
24011;DHT22;12217;50.792;4.372;2024-02-21T06:46:23;9.10;99.90
24011;DHT22;12217;50.792;4.372;2024-02-21T06:48:49;9.20;99.90
24011;DHT22;12217;50.792;4.372;2024-02-21T06:51:14;9.30;99.90
24011;DHT22;12217;50.792;4.372;2024-02-21T06:53:40;9.30;99.90
24011;DHT22;12217;50.792;4.372;2024-02-21T06:56:06;9.20;99.90
24011;DHT22;12217;50.792;4.372;2024-02-21T06:58:31;9.30;99.90
24011;DHT22;12217;50.792;4.372;2024-02-21T07:00:57;9.40;99.90
24011;DHT22;12217;50.792;4.372;2024-02-21T07:03:22;9.40;99.90
24011;DHT22;12217;50.792;4.372;2024-02-21T07:05:50;9.30;99.90
24011;DHT22;12217;50.792;4.372;2024-02-21T07:08:15;9.00;99.90
24011;DHT22;12217;50.792;4.372;2024-02-21T07:10:41;9.10;99.90
24011;DHT22;12217;50.792;4.372;2024-02-21T07:13:07;9.10;99.90
24011;DHT22;12217;50.792;4.372;2024-02-21T07:15:32;9.20;99.90
24011;DHT22;12217;50.792;4.372;2024-02-21T07:17:58;9.10;99.90
24011;DHT22;12217;50.792;4.372;2024-02-21T07:20:24;9.10;99.90
24011;DHT22;12217;50.792;4.372;2024-02-21T07:22:50;9.10;99.90
24011;DHT22;12217;50.792;4.372;2024-02-21T07:25:16;9.10;99.90
24011;DHT22;12217;50.792;4.372;2024-02-21T07:27:43;9.10;99.90
24011;DHT22;12217;50.792;4.372;2024-02-21T07:30:09;9.00;99.90
24011;DHT22;12217;50.792;4.372;2024-02-21T07:32:35;9.00;99.90
24011;DHT22;12217;50.792;4.372;2024-02-21T07:35:01;9.00;99.90
24011;DHT22;12217;50.792;4.372;2024-02-21T07:37:26;9.00;99.90
24011;DHT22;12217;50.792;4.372;2024-02-21T07:39:52;9.30;99.90
24011;DHT22;12217;50.792;4.372;2024-02-21T07:42:17;9.40;99.90
24011;DHT22;12217;50.792;4.372;2024-02-21T07:44:43;9.30;99.90
24011;DHT22;12217;50.792;4.372;2024-02-21T07:47:09;9.30;99.90
24011;DHT22;12217;50.792;4.372;2024-02-21T07:49:41;9.20;99.90
24011;DHT22;12217;50.792;4.372;2024-02-21T07:52:07;9.30;99.90
24011;DHT22;12217;50.792;4.372;2024-02-21T07:54:33;9.40;99.90
24011;DHT22;12217;50.792;4.372;2024-02-21T07:56:58;9.40;99.90
24011;DHT22;12217;50.792;4.372;2024-02-21T07:59:24;9.50;99.90
24011;DHT22;12217;50.792;4.372;2024-02-21T08:01:49;9.50;99.90
24011;DHT22;12217;50.792;4.372;2024-02-21T08:04:15;9.60;99.90
24011;DHT22;12217;50.792;4.372;2024-02-21T08:06:41;9.70;99.90
24011;DHT22;12217;50.792;4.372;2024-02-21T08:09:06;9.80;99.90
24011;DHT22;12217;50.792;4.372;2024-02-21T08:11:32;9.60;99.90
24011;DHT22;12217;50.792;4.372;2024-02-21T08:13:58;9.70;99.90
24011;DHT22;12217;50.792;4.372;2024-02-21T08:16:23;9.50;99.90
24011;DHT22;12217;50.792;4.372;2024-02-21T08:18:49;9.50;99.90
24011;DHT22;12217;50.792;4.372;2024-02-21T08:21:15;9.60;99.90
24011;DHT22;12217;50.792;4.372;2024-02-21T08:23:42;9.70;99.90
24011;DHT22;12217;50.792;4.372;2024-02-21T08:26:07;9.50;99.90
24011;DHT22;12217;50.792;4.372;2024-02-21T08:28:33;9.50;99.90
24011;DHT22;12217;50.792;4.372;2024-02-21T08:30:59;9.60;99.90
24011;DHT22;12217;50.792;4.372;2024-02-21T08:33:24;9.70;99.90
24011;DHT22;12217;50.792;4.372;2024-02-21T08:35:51;9.80;99.90
24011;DHT22;12217;50.792;4.372;2024-02-21T08:38:17;9.70;99.90
24011;DHT22;12217;50.792;4.372;2024-02-21T08:40:42;9.70;99.90
24011;DHT22;12217;50.792;4.372;2024-02-21T08:43:08;9.70;99.90
24011;DHT22;12217;50.792;4.372;2024-02-21T08:45:33;9.70;99.90
24011;DHT22;12217;50.792;4.372;2024-02-21T08:47:59;9.60;99.90
24011;DHT22;12217;50.792;4.372;2024-02-21T08:50:24;9.60;99.90
24011;DHT22;12217;50.792;4.372;2024-02-21T08:52:50;9.60;99.90
24011;DHT22;12217;50.792;4.372;2024-02-21T08:55:16;9.80;99.90
24011;DHT22;12217;50.792;4.372;2024-02-21T08:57:42;9.90;99.90
24011;DHT22;12217;50.792;4.372;2024-02-21T09:00:07;9.90;99.90
24011;DHT22;12217;50.792;4.372;2024-02-21T09:02:40;9.90;99.90
24011;DHT22;12217;50.792;4.372;2024-02-21T09:05:08;9.90;99.90
24011;DHT22;12217;50.792;4.372;2024-02-21T09:07:33;9.90;99.90
24011;DHT22;12217;50.792;4.372;2024-02-21T09:09:59;9.90;99.90
24011;DHT22;12217;50.792;4.372;2024-02-21T09:12:25;9.80;99.90
24011;DHT22;12217;50.792;4.372;2024-02-21T09:14:50;9.70;99.90
24011;DHT22;12217;50.792;4.372;2024-02-21T09:17:16;9.90;99.90
24011;DHT22;12217;50.792;4.372;2024-02-21T09:19:50;9.90;99.90
24011;DHT22;12217;50.792;4.372;2024-02-21T09:22:15;10.00;99.90
24011;DHT22;12217;50.792;4.372;2024-02-21T09:24:41;10.10;99.90
24011;DHT22;12217;50.792;4.372;2024-02-21T09:27:07;10.00;99.90
24011;DHT22;12217;50.792;4.372;2024-02-21T09:29:32;10.00;99.90
24011;DHT22;12217;50.792;4.372;2024-02-21T09:32:01;10.00;99.90
24011;DHT22;12217;50.792;4.372;2024-02-21T09:34:28;10.00;99.90
24011;DHT22;12217;50.792;4.372;2024-02-21T09:36:53;10.10;99.90
24011;DHT22;12217;50.792;4.372;2024-02-21T09:39:19;10.10;99.90
24011;DHT22;12217;50.792;4.372;2024-02-21T09:41:53;10.20;99.90
24011;DHT22;12217;50.792;4.372;2024-02-21T09:44:21;10.20;99.90
24011;DHT22;12217;50.792;4.372;2024-02-21T09:46:57;10.20;99.90
24011;DHT22;12217;50.792;4.372;2024-02-21T09:49:33;10.30;99.90
24011;DHT22;12217;50.792;4.372;2024-02-21T09:52:03;10.30;99.90
24011;DHT22;12217;50.792;4.372;2024-02-21T09:54:30;10.20;99.90
24011;DHT22;12217;50.792;4.372;2024-02-21T09:57:03;10.30;99.90
24011;DHT22;12217;50.792;4.372;2024-02-21T09:59:31;10.20;99.90
24011;DHT22;12217;50.792;4.372;2024-02-21T10:01:57;10.30;99.90
24011;DHT22;12217;50.792;4.372;2024-02-21T10:04:25;10.20;99.90
24011;DHT22;12217;50.792;4.372;2024-02-21T10:06:51;10.10;99.90
24011;DHT22;12217;50.792;4.372;2024-02-21T10:09:21;10.20;99.90
24011;DHT22;12217;50.792;4.372;2024-02-21T10:11:48;10.40;99.90
24011;DHT22;12217;50.792;4.372;2024-02-21T10:14:15;10.40;99.90
24011;DHT22;12217;50.792;4.372;2024-02-21T10:16:41;10.40;99.90
24011;DHT22;12217;50.792;4.372;2024-02-21T10:19:06;10.50;99.90
24011;DHT22;12217;50.792;4.372;2024-02-21T10:21:32;10.50;99.90
24011;DHT22;12217;50.792;4.372;2024-02-21T10:23:57;10.70;99.90
24011;DHT22;12217;50.792;4.372;2024-02-21T10:26:23;10.70;99.90
24011;DHT22;12217;50.792;4.372;2024-02-21T10:28:49;10.60;99.90
24011;DHT22;12217;50.792;4.372;2024-02-21T10:31:24;10.80;99.90
24011;DHT22;12217;50.792;4.372;2024-02-21T10:34:01;10.80;99.90
24011;DHT22;12217;50.792;4.372;2024-02-21T10:36:30;10.70;99.90
24011;DHT22;12217;50.792;4.372;2024-02-21T10:38:56;10.50;99.90
24011;DHT22;12217;50.792;4.372;2024-02-21T10:41:23;10.40;99.90
24011;DHT22;12217;50.792;4.372;2024-02-21T10:43:53;10.40;99.90
24011;DHT22;12217;50.792;4.372;2024-02-21T10:46:21;10.40;99.90
24011;DHT22;12217;50.792;4.372;2024-02-21T10:48:47;10.50;99.90
24011;DHT22;12217;50.792;4.372;2024-02-21T10:51:20;10.60;99.90
24011;DHT22;12217;50.792;4.372;2024-02-21T10:56:22;10.40;99.90
24011;DHT22;12217;50.792;4.372;2024-02-21T10:58:52;10.50;99.90
24011;DHT22;12217;50.792;4.372;2024-02-21T11:01:18;10.60;99.90
24011;DHT22;12217;50.792;4.372;2024-02-21T11:03:49;10.60;99.90
24011;DHT22;12217;50.792;4.372;2024-02-21T11:06:16;10.50;99.90
24011;DHT22;12217;50.792;4.372;2024-02-21T11:08:43;10.70;99.90
24011;DHT22;12217;50.792;4.372;2024-02-21T11:11:12;10.70;99.90
24011;DHT22;12217;50.792;4.372;2024-02-21T11:13:43;10.60;99.90
24011;DHT22;12217;50.792;4.372;2024-02-21T11:16:21;10.50;99.90
24011;DHT22;12217;50.792;4.372;2024-02-21T11:18:47;10.50;99.90
24011;DHT22;12217;50.792;4.372;2024-02-21T11:21:12;10.50;99.90
24011;DHT22;12217;50.792;4.372;2024-02-21T11:23:38;10.60;99.90
24011;DHT22;12217;50.792;4.372;2024-02-21T11:26:10;10.70;99.90
24011;DHT22;12217;50.792;4.372;2024-02-21T11:28:44;10.50;99.90
24011;DHT22;12217;50.792;4.372;2024-02-21T11:31:13;10.40;99.90
24011;DHT22;12217;50.792;4.372;2024-02-21T11:33:43;10.30;99.90
24011;DHT22;12217;50.792;4.372;2024-02-21T11:36:26;10.20;99.90
24011;DHT22;12217;50.792;4.372;2024-02-21T11:38:52;10.20;99.90
24011;DHT22;12217;50.792;4.372;2024-02-21T11:41:21;10.20;99.90
24011;DHT22;12217;50.792;4.372;2024-02-21T11:43:48;10.10;99.90
24011;DHT22;12217;50.792;4.372;2024-02-21T11:46:15;10.10;99.90
24011;DHT22;12217;50.792;4.372;2024-02-21T11:48:41;10.20;99.90
24011;DHT22;12217;50.792;4.372;2024-02-21T11:51:09;10.40;99.90
24011;DHT22;12217;50.792;4.372;2024-02-21T11:53:36;10.40;99.90
24011;DHT22;12217;50.792;4.372;2024-02-21T11:56:02;10.50;99.90
24011;DHT22;12217;50.792;4.372;2024-02-21T11:58:28;10.40;99.90
24011;DHT22;12217;50.792;4.372;2024-02-21T12:00:56;10.40;99.90
24011;DHT22;12217;50.792;4.372;2024-02-21T12:03:21;10.50;99.90
24011;DHT22;12217;50.792;4.372;2024-02-21T12:05:47;10.60;99.90
24011;DHT22;12217;50.792;4.372;2024-02-21T12:08:13;10.50;99.90
24011;DHT22;12217;50.792;4.372;2024-02-21T12:10:38;10.40;99.90
24011;DHT22;12217;50.792;4.372;2024-02-21T12:13:10;10.40;99.90
24011;DHT22;12217;50.792;4.372;2024-02-21T12:15:38;10.30;99.90
24011;DHT22;12217;50.792;4.372;2024-02-21T12:18:05;10.10;99.90
24011;DHT22;12217;50.792;4.372;2024-02-21T12:20:31;10.00;99.90
24011;DHT22;12217;50.792;4.372;2024-02-21T12:23:00;10.00;99.90
24011;DHT22;12217;50.792;4.372;2024-02-21T12:25:25;10.00;99.90
24011;DHT22;12217;50.792;4.372;2024-02-21T12:27:52;10.00;99.90
24011;DHT22;12217;50.792;4.372;2024-02-21T12:30:19;10.00;99.90
24011;DHT22;12217;50.792;4.372;2024-02-21T12:32:46;10.10;99.90
24011;DHT22;12217;50.792;4.372;2024-02-21T12:35:11;10.20;99.90
24011;DHT22;12217;50.792;4.372;2024-02-21T12:37:37;10.20;99.90
24011;DHT22;12217;50.792;4.372;2024-02-21T12:40:07;10.00;99.90
24011;DHT22;12217;50.792;4.372;2024-02-21T12:42:33;10.10;99.90
24011;DHT22;12217;50.792;4.372;2024-02-21T12:44:59;10.20;99.90
24011;DHT22;12217;50.792;4.372;2024-02-21T12:47:25;10.20;99.90
24011;DHT22;12217;50.792;4.372;2024-02-21T12:49:52;10.30;99.90
24011;DHT22;12217;50.792;4.372;2024-02-21T12:52:18;10.40;99.90
24011;DHT22;12217;50.792;4.372;2024-02-21T12:54:44;10.40;99.90
24011;DHT22;12217;50.792;4.372;2024-02-21T12:57:09;10.40;99.90
24011;DHT22;12217;50.792;4.372;2024-02-21T12:59:35;10.30;99.90
24011;DHT22;12217;50.792;4.372;2024-02-21T13:02:00;10.40;99.90
24011;DHT22;12217;50.792;4.372;2024-02-21T13:04:26;10.40;99.90
24011;DHT22;12217;50.792;4.372;2024-02-21T13:06:51;10.40;99.90
24011;DHT22;12217;50.792;4.372;2024-02-21T13:09:17;10.50;99.90
24011;DHT22;12217;50.792;4.372;2024-02-21T13:11:43;10.50;99.90
24011;DHT22;12217;50.792;4.372;2024-02-21T13:14:11;10.60;99.90
24011;DHT22;12217;50.792;4.372;2024-02-21T13:16:37;10.50;99.90
24011;DHT22;12217;50.792;4.372;2024-02-21T13:19:08;10.60;99.90
24011;DHT22;12217;50.792;4.372;2024-02-21T13:21:34;10.50;99.90
24011;DHT22;12217;50.792;4.372;2024-02-21T13:24:00;10.60;99.90
24011;DHT22;12217;50.792;4.372;2024-02-21T13:26:26;10.50;99.90
24011;DHT22;12217;50.792;4.372;2024-02-21T13:28:52;10.50;99.90
24011;DHT22;12217;50.792;4.372;2024-02-21T13:31:18;10.50;99.90
24011;DHT22;12217;50.792;4.372;2024-02-21T13:33:44;10.70;99.90
24011;DHT22;12217;50.792;4.372;2024-02-21T13:36:12;10.50;99.90
24011;DHT22;12217;50.792;4.372;2024-02-21T13:38:38;10.50;99.90
24011;DHT22;12217;50.792;4.372;2024-02-21T13:41:06;10.50;99.90
24011;DHT22;12217;50.792;4.372;2024-02-21T13:43:33;10.40;99.90
24011;DHT22;12217;50.792;4.372;2024-02-21T13:46:00;10.40;99.90
24011;DHT22;12217;50.792;4.372;2024-02-21T13:48:26;10.40;99.90
24011;DHT22;12217;50.792;4.372;2024-02-21T13:50:52;10.30;99.90
24011;DHT22;12217;50.792;4.372;2024-02-21T13:53:18;10.20;99.90
24011;DHT22;12217;50.792;4.372;2024-02-21T13:55:44;10.30;99.90
24011;DHT22;12217;50.792;4.372;2024-02-21T13:58:10;10.20;99.90
24011;DHT22;12217;50.792;4.372;2024-02-21T14:00:36;10.10;99.90
24011;DHT22;12217;50.792;4.372;2024-02-21T14:03:02;10.20;99.90
24011;DHT22;12217;50.792;4.372;2024-02-21T14:05:27;10.20;99.90
24011;DHT22;12217;50.792;4.372;2024-02-21T14:07:53;10.10;99.90
24011;DHT22;12217;50.792;4.372;2024-02-21T14:10:20;10.20;99.90
24011;DHT22;12217;50.792;4.372;2024-02-21T14:12:46;10.20;99.90
24011;DHT22;12217;50.792;4.372;2024-02-21T14:15:13;10.30;99.90
24011;DHT22;12217;50.792;4.372;2024-02-21T14:17:39;10.20;99.90
24011;DHT22;12217;50.792;4.372;2024-02-21T14:20:06;10.30;99.90
24011;DHT22;12217;50.792;4.372;2024-02-21T14:22:31;10.30;99.90
24011;DHT22;12217;50.792;4.372;2024-02-21T14:24:57;10.40;99.90
24011;DHT22;12217;50.792;4.372;2024-02-21T14:27:22;10.30;99.90
24011;DHT22;12217;50.792;4.372;2024-02-21T14:29:48;10.10;99.90
24011;DHT22;12217;50.792;4.372;2024-02-21T14:32:14;10.20;99.90
24011;DHT22;12217;50.792;4.372;2024-02-21T14:34:39;10.10;99.90
24011;DHT22;12217;50.792;4.372;2024-02-21T14:37:05;10.20;99.90
24011;DHT22;12217;50.792;4.372;2024-02-21T14:39:30;10.10;99.90
24011;DHT22;12217;50.792;4.372;2024-02-21T14:41:58;10.20;99.90
24011;DHT22;12217;50.792;4.372;2024-02-21T14:44:25;10.20;99.90
24011;DHT22;12217;50.792;4.372;2024-02-21T14:46:51;10.20;99.90
24011;DHT22;12217;50.792;4.372;2024-02-21T14:49:16;10.10;99.90
24011;DHT22;12217;50.792;4.372;2024-02-21T14:51:44;10.00;99.90
24011;DHT22;12217;50.792;4.372;2024-02-21T14:54:10;9.90;99.90
24011;DHT22;12217;50.792;4.372;2024-02-21T14:56:36;9.90;99.90
24011;DHT22;12217;50.792;4.372;2024-02-21T14:59:02;10.00;99.90
24011;DHT22;12217;50.792;4.372;2024-02-21T15:01:28;9.90;99.90
24011;DHT22;12217;50.792;4.372;2024-02-21T15:03:54;9.90;99.90
24011;DHT22;12217;50.792;4.372;2024-02-21T15:06:19;9.90;99.90
24011;DHT22;12217;50.792;4.372;2024-02-21T15:08:45;10.00;99.90
24011;DHT22;12217;50.792;4.372;2024-02-21T15:11:11;9.90;99.90
24011;DHT22;12217;50.792;4.372;2024-02-21T15:13:37;9.90;99.90
24011;DHT22;12217;50.792;4.372;2024-02-21T15:16:03;10.00;99.90
24011;DHT22;12217;50.792;4.372;2024-02-21T15:18:30;10.10;99.90
24011;DHT22;12217;50.792;4.372;2024-02-21T15:20:58;10.10;99.90
24011;DHT22;12217;50.792;4.372;2024-02-21T15:23:24;9.90;99.90
24011;DHT22;12217;50.792;4.372;2024-02-21T15:25:50;9.70;99.90
24011;DHT22;12217;50.792;4.372;2024-02-21T15:28:16;9.70;99.90
24011;DHT22;12217;50.792;4.372;2024-02-21T15:30:41;9.70;99.90
24011;DHT22;12217;50.792;4.372;2024-02-21T15:33:07;9.80;99.90
24011;DHT22;12217;50.792;4.372;2024-02-21T15:35:33;9.70;99.90
24011;DHT22;12217;50.792;4.372;2024-02-21T15:37:59;9.70;99.90
24011;DHT22;12217;50.792;4.372;2024-02-21T15:40:25;9.70;99.90